sensor_id;sensor_type;location;lat;lon;timestamp;pressure;altitude;pressure_sealevel;temperature
48003;BMP280;33768;48.578;11.574;2022-10-16T00:01:51;96491.34;;;14.30
48003;BMP280;33768;48.578;11.574;2022-10-16T00:04:55;96507.47;;;14.26
48003;BMP280;33768;48.578;11.574;2022-10-16T00:07:59;96521.91;;;14.19
48003;BMP280;33768;48.578;11.574;2022-10-16T00:11:05;96515.47;;;14.09
48003;BMP280;33768;48.578;11.574;2022-10-16T00:14:12;96521.69;;;14.03
48003;BMP280;33768;48.578;11.574;2022-10-16T00:17:17;96533.22;;;14.01
48003;BMP280;33768;48.578;11.574;2022-10-16T00:20:21;96534.47;;;14.00
48003;BMP280;33768;48.578;11.574;2022-10-16T00:23:43;96526.56;;;13.97
48003;BMP280;33768;48.578;11.574;2022-10-16T00:26:49;96521.63;;;13.95
48003;BMP280;33768;48.578;11.574;2022-10-16T00:29:53;96514.34;;;13.98
48003;BMP280;33768;48.578;11.574;2022-10-16T00:32:57;96501.75;;;14.02
48003;BMP280;33768;48.578;11.574;2022-10-16T00:36:03;96501.56;;;14.07
48003;BMP280;33768;48.578;11.574;2022-10-16T00:39:07;96499.53;;;14.08
48003;BMP280;33768;48.578;11.574;2022-10-16T00:42:16;96502.13;;;14.06
48003;BMP280;33768;48.578;11.574;2022-10-16T00:45:20;96507.63;;;14.06
48003;BMP280;33768;48.578;11.574;2022-10-16T00:48:24;96529.38;;;14.04
48003;BMP280;33768;48.578;11.574;2022-10-16T00:51:43;96536.50;;;14.00
48003;BMP280;33768;48.578;11.574;2022-10-16T00:54:49;96555.28;;;13.96
48003;BMP280;33768;48.578;11.574;2022-10-16T00:57:54;96546.69;;;13.92
48003;BMP280;33768;48.578;11.574;2022-10-16T01:00:59;96548.50;;;13.89
48003;BMP280;33768;48.578;11.574;2022-10-16T01:04:03;96552.88;;;13.85
48003;BMP280;33768;48.578;11.574;2022-10-16T01:07:22;96552.50;;;13.81
48003;BMP280;33768;48.578;11.574;2022-10-16T01:10:57;96546.63;;;13.77
48003;BMP280;33768;48.578;11.574;2022-10-16T01:17:35;96534.19;;;13.76
48003;BMP280;33768;48.578;11.574;2022-10-16T01:21:08;96538.19;;;13.75
48003;BMP280;33768;48.578;11.574;2022-10-16T01:24:26;96540.56;;;13.71
48003;BMP280;33768;48.578;11.574;2022-10-16T01:27:33;96538.72;;;13.66
48003;BMP280;33768;48.578;11.574;2022-10-16T01:30:40;96536.31;;;13.63
48003;BMP280;33768;48.578;11.574;2022-10-16T01:33:49;96538.13;;;13.60
48003;BMP280;33768;48.578;11.574;2022-10-16T01:36:59;96551.84;;;13.60
48003;BMP280;33768;48.578;11.574;2022-10-16T01:40:11;96544.38;;;13.61
48003;BMP280;33768;48.578;11.574;2022-10-16T01:43:34;96531.59;;;13.63
48003;BMP280;33768;48.578;11.574;2022-10-16T01:46:42;96534.50;;;13.65
48003;BMP280;33768;48.578;11.574;2022-10-16T01:49:47;96533.41;;;13.61
48003;BMP280;33768;48.578;11.574;2022-10-16T01:52:54;96539.78;;;13.56
48003;BMP280;33768;48.578;11.574;2022-10-16T01:56:02;96550.53;;;13.54
48003;BMP280;33768;48.578;11.574;2022-10-16T01:59:12;96554.19;;;13.49
48003;BMP280;33768;48.578;11.574;2022-10-16T02:02:19;96553.06;;;13.44
48003;BMP280;33768;48.578;11.574;2022-10-16T02:05:32;96551.41;;;13.42
48003;BMP280;33768;48.578;11.574;2022-10-16T02:08:38;96557.22;;;13.38
48003;BMP280;33768;48.578;11.574;2022-10-16T02:11:44;96556.63;;;13.32
48003;BMP280;33768;48.578;11.574;2022-10-16T02:14:49;96558.06;;;13.26
48003;BMP280;33768;48.578;11.574;2022-10-16T02:17:53;96557.66;;;13.22
48003;BMP280;33768;48.578;11.574;2022-10-16T02:21:15;96564.97;;;13.19
48003;BMP280;33768;48.578;11.574;2022-10-16T02:24:33;96560.75;;;13.18
48003;BMP280;33768;48.578;11.574;2022-10-16T02:27:56;96552.53;;;13.18
48003;BMP280;33768;48.578;11.574;2022-10-16T02:31:07;96545.56;;;13.17
48003;BMP280;33768;48.578;11.574;2022-10-16T02:34:14;96555.06;;;13.16
48003;BMP280;33768;48.578;11.574;2022-10-16T02:37:19;96556.69;;;13.12
48003;BMP280;33768;48.578;11.574;2022-10-16T02:40:25;96554.81;;;13.07
48003;BMP280;33768;48.578;11.574;2022-10-16T02:43:30;96550.06;;;13.00
48003;BMP280;33768;48.578;11.574;2022-10-16T02:46:34;96539.22;;;12.95
48003;BMP280;33768;48.578;11.574;2022-10-16T02:49:38;96541.56;;;12.91
48003;BMP280;33768;48.578;11.574;2022-10-16T02:52:42;96539.16;;;12.87
48003;BMP280;33768;48.578;11.574;2022-10-16T02:55:47;96538.38;;;12.80
48003;BMP280;33768;48.578;11.574;2022-10-16T02:58:51;96540.50;;;12.74
48003;BMP280;33768;48.578;11.574;2022-10-16T03:01:55;96543.91;;;12.67
48003;BMP280;33768;48.578;11.574;2022-10-16T03:04:59;96549.16;;;12.65
48003;BMP280;33768;48.578;11.574;2022-10-16T03:08:04;96548.66;;;12.66
48003;BMP280;33768;48.578;11.574;2022-10-16T03:11:08;96553.59;;;12.68
48003;BMP280;33768;48.578;11.574;2022-10-16T03:14:12;96552.91;;;12.75
48003;BMP280;33768;48.578;11.574;2022-10-16T03:17:16;96559.56;;;12.79
48003;BMP280;33768;48.578;11.574;2022-10-16T03:20:21;96556.47;;;12.82
48003;BMP280;33768;48.578;11.574;2022-10-16T03:23:25;96563.44;;;12.83
48003;BMP280;33768;48.578;11.574;2022-10-16T03:26:28;96566.69;;;12.82
48003;BMP280;33768;48.578;11.574;2022-10-16T03:29:33;96570.91;;;12.83
48003;BMP280;33768;48.578;11.574;2022-10-16T03:32:37;96568.91;;;12.83
48003;BMP280;33768;48.578;11.574;2022-10-16T03:35:41;96557.81;;;12.89
48003;BMP280;33768;48.578;11.574;2022-10-16T03:38:46;96558.38;;;12.95
48003;BMP280;33768;48.578;11.574;2022-10-16T03:41:50;96561.47;;;12.91
48003;BMP280;33768;48.578;11.574;2022-10-16T03:44:54;96575.19;;;12.91
48003;BMP280;33768;48.578;11.574;2022-10-16T03:47:58;96576.31;;;12.96
48003;BMP280;33768;48.578;11.574;2022-10-16T03:51:03;96576.16;;;13.01
48003;BMP280;33768;48.578;11.574;2022-10-16T03:54:07;96583.72;;;13.08
48003;BMP280;33768;48.578;11.574;2022-10-16T03:57:11;96590.66;;;13.09
48003;BMP280;33768;48.578;11.574;2022-10-16T04:00:15;96598.88;;;13.09
48003;BMP280;33768;48.578;11.574;2022-10-16T04:03:20;96596.34;;;13.11
48003;BMP280;33768;48.578;11.574;2022-10-16T04:06:25;96597.78;;;13.12
48003;BMP280;33768;48.578;11.574;2022-10-16T04:09:29;96578.66;;;13.19
48003;BMP280;33768;48.578;11.574;2022-10-16T04:12:33;96580.88;;;13.21
48003;BMP280;33768;48.578;11.574;2022-10-16T04:15:38;96581.09;;;13.23
48003;BMP280;33768;48.578;11.574;2022-10-16T04:18:42;96586.72;;;13.25
48003;BMP280;33768;48.578;11.574;2022-10-16T04:21:47;96580.16;;;13.28
48003;BMP280;33768;48.578;11.574;2022-10-16T04:24:51;96587.13;;;13.29
48003;BMP280;33768;48.578;11.574;2022-10-16T04:27:55;96579.13;;;13.31
48003;BMP280;33768;48.578;11.574;2022-10-16T04:30:59;96576.94;;;13.37
48003;BMP280;33768;48.578;11.574;2022-10-16T04:34:03;96573.28;;;13.34
48003;BMP280;33768;48.578;11.574;2022-10-16T04:37:08;96573.28;;;13.34
48003;BMP280;33768;48.578;11.574;2022-10-16T04:40:12;96566.34;;;13.33
48003;BMP280;33768;48.578;11.574;2022-10-16T04:43:16;96583.31;;;13.32
48003;BMP280;33768;48.578;11.574;2022-10-16T04:46:20;96577.63;;;13.30
48003;BMP280;33768;48.578;11.574;2022-10-16T04:49:25;96575.28;;;13.34
48003;BMP280;33768;48.578;11.574;2022-10-16T04:52:29;96583.53;;;13.34
48003;BMP280;33768;48.578;11.574;2022-10-16T04:55:35;96598.69;;;13.35
48003;BMP280;33768;48.578;11.574;2022-10-16T04:58:40;96598.88;;;13.37
48003;BMP280;33768;48.578;11.574;2022-10-16T05:01:44;96574.00;;;13.35
48003;BMP280;33768;48.578;11.574;2022-10-16T05:04:51;96576.03;;;13.34
48003;BMP280;33768;48.578;11.574;2022-10-16T05:07:55;96583.13;;;13.30
48003;BMP280;33768;48.578;11.574;2022-10-16T05:11:00;96593.16;;;13.27
48003;BMP280;33768;48.578;11.574;2022-10-16T05:14:06;96588.41;;;13.28
48003;BMP280;33768;48.578;11.574;2022-10-16T05:17:10;96593.16;;;13.27
48003;BMP280;33768;48.578;11.574;2022-10-16T05:20:14;96583.84;;;13.30
48003;BMP280;33768;48.578;11.574;2022-10-16T05:23:18;96580.03;;;13.33
48003;BMP280;33768;48.578;11.574;2022-10-16T05:26:22;96581.84;;;13.31
48003;BMP280;33768;48.578;11.574;2022-10-16T05:29:27;96581.66;;;13.29
48003;BMP280;33768;48.578;11.574;2022-10-16T05:32:31;96578.72;;;13.27
48003;BMP280;33768;48.578;11.574;2022-10-16T05:35:35;96580.72;;;13.26
48003;BMP280;33768;48.578;11.574;2022-10-16T05:38:39;96575.97;;;13.27
48003;BMP280;33768;48.578;11.574;2022-10-16T05:41:44;96587.66;;;13.27
48003;BMP280;33768;48.578;11.574;2022-10-16T05:44:49;96595.88;;;13.27
48003;BMP280;33768;48.578;11.574;2022-10-16T05:47:52;96607.59;;;13.28
48003;BMP280;33768;48.578;11.574;2022-10-16T05:51:03;96611.41;;;13.25
48003;BMP280;33768;48.578;11.574;2022-10-16T05:54:07;96605.75;;;13.23
48003;BMP280;33768;48.578;11.574;2022-10-16T05:57:12;96609.00;;;13.21
48003;BMP280;33768;48.578;11.574;2022-10-16T06:00:16;96607.56;;;13.20
48003;BMP280;33768;48.578;11.574;2022-10-16T06:03:20;96616.09;;;13.17
48003;BMP280;33768;48.578;11.574;2022-10-16T06:06:27;96621.19;;;13.13
48003;BMP280;33768;48.578;11.574;2022-10-16T06:09:31;96612.56;;;13.09
48003;BMP280;33768;48.578;11.574;2022-10-16T06:12:35;96611.50;;;13.12
48003;BMP280;33768;48.578;11.574;2022-10-16T06:15:42;96614.03;;;13.10
48003;BMP280;33768;48.578;11.574;2022-10-16T06:18:47;96629.88;;;13.04
48003;BMP280;33768;48.578;11.574;2022-10-16T06:21:51;96635.88;;;13.03
48003;BMP280;33768;48.578;11.574;2022-10-16T06:24:56;96636.97;;;13.00
48003;BMP280;33768;48.578;11.574;2022-10-16T06:28:00;96648.47;;;12.98
48003;BMP280;33768;48.578;11.574;2022-10-16T06:31:05;96655.84;;;13.03
48003;BMP280;33768;48.578;11.574;2022-10-16T06:34:10;96651.34;;;13.13
48003;BMP280;33768;48.578;11.574;2022-10-16T06:37:15;96662.41;;;13.28
48003;BMP280;33768;48.578;11.574;2022-10-16T06:40:19;96659.44;;;13.46
48003;BMP280;33768;48.578;11.574;2022-10-16T06:43:24;96669.09;;;13.67
48003;BMP280;33768;48.578;11.574;2022-10-16T06:46:28;96675.44;;;13.90
48003;BMP280;33768;48.578;11.574;2022-10-16T06:49:32;96676.69;;;14.09
48003;BMP280;33768;48.578;11.574;2022-10-16T06:52:36;96666.69;;;14.26
48003;BMP280;33768;48.578;11.574;2022-10-16T06:55:40;96665.47;;;14.42
48003;BMP280;33768;48.578;11.574;2022-10-16T06:58:45;96667.50;;;14.49
48003;BMP280;33768;48.578;11.574;2022-10-16T07:01:49;96675.91;;;14.51
48003;BMP280;33768;48.578;11.574;2022-10-16T07:04:53;96675.91;;;14.51
48003;BMP280;33768;48.578;11.574;2022-10-16T07:07:57;96680.31;;;14.46
48003;BMP280;33768;48.578;11.574;2022-10-16T07:11:05;96673.69;;;14.42
48003;BMP280;33768;48.578;11.574;2022-10-16T07:14:18;96688.69;;;14.41
48003;BMP280;33768;48.578;11.574;2022-10-16T07:17:23;96688.34;;;14.44
48003;BMP280;33768;48.578;11.574;2022-10-16T07:20:27;96688.94;;;14.58
48003;BMP280;33768;48.578;11.574;2022-10-16T07:23:32;96691.94;;;14.74
48003;BMP280;33768;48.578;11.574;2022-10-16T07:26:37;96698.19;;;14.90
48003;BMP280;33768;48.578;11.574;2022-10-16T07:29:43;96708.09;;;15.00
48003;BMP280;33768;48.578;11.574;2022-10-16T07:32:47;96703.56;;;15.10
48003;BMP280;33768;48.578;11.574;2022-10-16T07:35:52;96717.34;;;15.25
48003;BMP280;33768;48.578;11.574;2022-10-16T07:38:57;96707.81;;;15.40
48003;BMP280;33768;48.578;11.574;2022-10-16T07:42:01;96701.38;;;15.53
48003;BMP280;33768;48.578;11.574;2022-10-16T07:45:06;96708.34;;;15.61
48003;BMP280;33768;48.578;11.574;2022-10-16T07:48:10;96711.81;;;15.69
48003;BMP280;33768;48.578;11.574;2022-10-16T07:51:17;96703.56;;;15.76
48003;BMP280;33768;48.578;11.574;2022-10-16T07:54:22;96718.03;;;15.84
48003;BMP280;33768;48.578;11.574;2022-10-16T07:57:26;96726.28;;;15.92
48003;BMP280;33768;48.578;11.574;2022-10-16T08:00:31;96724.25;;;15.99
48003;BMP280;33768;48.578;11.574;2022-10-16T08:03:36;96726.47;;;16.16
48003;BMP280;33768;48.578;11.574;2022-10-16T08:06:40;96731.53;;;16.34
48003;BMP280;33768;48.578;11.574;2022-10-16T08:09:44;96734.78;;;16.55
48003;BMP280;33768;48.578;11.574;2022-10-16T08:12:48;96723.16;;;16.71
48003;BMP280;33768;48.578;11.574;2022-10-16T08:15:53;96725.66;;;16.84
48003;BMP280;33768;48.578;11.574;2022-10-16T08:18:58;96739.19;;;16.96
48003;BMP280;33768;48.578;11.574;2022-10-16T08:22:02;96744.06;;;17.05
48003;BMP280;33768;48.578;11.574;2022-10-16T08:25:07;96732.59;;;17.23
48003;BMP280;33768;48.578;11.574;2022-10-16T08:28:11;96747.13;;;17.48
48003;BMP280;33768;48.578;11.574;2022-10-16T08:31:16;96754.28;;;17.75
48003;BMP280;33768;48.578;11.574;2022-10-16T08:34:21;96759.38;;;18.03
48003;BMP280;33768;48.578;11.574;2022-10-16T08:37:29;96754.00;;;18.46
48003;BMP280;33768;48.578;11.574;2022-10-16T08:40:36;96746.25;;;18.78
48003;BMP280;33768;48.578;11.574;2022-10-16T08:46:57;96742.22;;;19.05
48003;BMP280;33768;48.578;11.574;2022-10-16T08:50:12;96737.53;;;19.24
48003;BMP280;33768;48.578;11.574;2022-10-16T08:53:28;96743.63;;;19.48
48003;BMP280;33768;48.578;11.574;2022-10-16T08:56:33;96744.56;;;20.05
48003;BMP280;33768;48.578;11.574;2022-10-16T08:59:38;96735.16;;;20.83
48003;BMP280;33768;48.578;11.574;2022-10-16T09:02:49;96723.53;;;21.72
48003;BMP280;33768;48.578;11.574;2022-10-16T09:06:10;96715.16;;;22.64
48003;BMP280;33768;48.578;11.574;2022-10-16T09:12:40;96730.22;;;23.80
48003;BMP280;33768;48.578;11.574;2022-10-16T09:19:15;96736.25;;;24.33
48003;BMP280;33768;48.578;11.574;2022-10-16T09:22:27;96734.69;;;24.19
48003;BMP280;33768;48.578;11.574;2022-10-16T09:25:33;96738.00;;;24.04
48003;BMP280;33768;48.578;11.574;2022-10-16T09:28:38;96746.81;;;24.35
48003;BMP280;33768;48.578;11.574;2022-10-16T09:31:43;96758.72;;;24.71
48003;BMP280;33768;48.578;11.574;2022-10-16T09:34:52;96758.47;;;24.79
48003;BMP280;33768;48.578;11.574;2022-10-16T09:37:57;96762.59;;;24.78
48003;BMP280;33768;48.578;11.574;2022-10-16T09:44:23;96758.56;;;24.92
48003;BMP280;33768;48.578;11.574;2022-10-16T09:47:30;96754.09;;;25.36
48003;BMP280;33768;48.578;11.574;2022-10-16T09:50:35;96759.22;;;25.91
48003;BMP280;33768;48.578;11.574;2022-10-16T09:53:44;96761.50;;;26.47
48003;BMP280;33768;48.578;11.574;2022-10-16T09:56:48;96759.66;;;27.07
48003;BMP280;33768;48.578;11.574;2022-10-16T09:59:57;96759.53;;;27.34
48003;BMP280;33768;48.578;11.574;2022-10-16T10:03:10;96762.34;;;27.62
48003;BMP280;33768;48.578;11.574;2022-10-16T10:09:38;96766.50;;;28.53
48003;BMP280;33768;48.578;11.574;2022-10-16T10:12:44;96766.78;;;28.76
48003;BMP280;33768;48.578;11.574;2022-10-16T10:15:50;96762.84;;;28.65
48003;BMP280;33768;48.578;11.574;2022-10-16T10:18:59;96769.25;;;28.85
48003;BMP280;33768;48.578;11.574;2022-10-16T10:22:59;96763.03;;;29.04
48003;BMP280;33768;48.578;11.574;2022-10-16T10:29:59;96740.50;;;29.36
48003;BMP280;33768;48.578;11.574;2022-10-16T10:36:36;96744.28;;;28.59
48003;BMP280;33768;48.578;11.574;2022-10-16T10:39:51;96743.69;;;27.53
48003;BMP280;33768;48.578;11.574;2022-10-16T10:46:20;96740.78;;;26.26
48003;BMP280;33768;48.578;11.574;2022-10-16T11:06:36;96769.25;;;24.37
48003;BMP280;33768;48.578;11.574;2022-10-16T11:09:47;96778.72;;;24.20
48003;BMP280;33768;48.578;11.574;2022-10-16T11:13:05;96764.03;;;23.75
48003;BMP280;33768;48.578;11.574;2022-10-16T11:16:26;96773.09;;;23.53
48003;BMP280;33768;48.578;11.574;2022-10-16T11:19:42;96780.56;;;23.39
48003;BMP280;33768;48.578;11.574;2022-10-16T11:22:54;96771.19;;;23.23
48003;BMP280;33768;48.578;11.574;2022-10-16T11:26:03;96765.81;;;23.04
48003;BMP280;33768;48.578;11.574;2022-10-16T11:29:17;96770.22;;;22.87
48003;BMP280;33768;48.578;11.574;2022-10-16T11:32:28;96762.00;;;22.89
48003;BMP280;33768;48.578;11.574;2022-10-16T11:35:43;96756.22;;;22.96
48003;BMP280;33768;48.578;11.574;2022-10-16T11:42:15;96754.59;;;23.25
48003;BMP280;33768;48.578;11.574;2022-10-16T11:45:28;96748.09;;;23.43
48003;BMP280;33768;48.578;11.574;2022-10-16T11:55:49;96757.38;;;23.68
48003;BMP280;33768;48.578;11.574;2022-10-16T11:59:04;96759.81;;;23.85
48003;BMP280;33768;48.578;11.574;2022-10-16T12:08:40;96764.75;;;24.54
48003;BMP280;33768;48.578;11.574;2022-10-16T12:11:45;96759.00;;;25.00
48003;BMP280;33768;48.578;11.574;2022-10-16T12:18:23;96760.78;;;25.31
48003;BMP280;33768;48.578;11.574;2022-10-16T12:21:30;96758.72;;;25.07
48003;BMP280;33768;48.578;11.574;2022-10-16T12:24:37;96756.50;;;24.92
48003;BMP280;33768;48.578;11.574;2022-10-16T12:27:42;96754.31;;;24.80
48003;BMP280;33768;48.578;11.574;2022-10-16T12:31:01;96757.56;;;24.63
48003;BMP280;33768;48.578;11.574;2022-10-16T12:34:14;96752.44;;;24.71
48003;BMP280;33768;48.578;11.574;2022-10-16T12:37:28;96754.59;;;25.33
48003;BMP280;33768;48.578;11.574;2022-10-16T12:40:36;96748.53;;;25.87
48003;BMP280;33768;48.578;11.574;2022-10-16T12:43:46;96752.75;;;25.75
48003;BMP280;33768;48.578;11.574;2022-10-16T12:46:50;96747.09;;;25.48
48003;BMP280;33768;48.578;11.574;2022-10-16T12:49:54;96754.94;;;25.14
48003;BMP280;33768;48.578;11.574;2022-10-16T12:53:00;96751.44;;;24.78
48003;BMP280;33768;48.578;11.574;2022-10-16T13:02:49;96752.13;;;24.89
48003;BMP280;33768;48.578;11.574;2022-10-16T13:20:28;96754.16;;;26.40
48003;BMP280;33768;48.578;11.574;2022-10-16T13:23:20;96763.28;;;26.14
48003;BMP280;33768;48.578;11.574;2022-10-16T13:29:33;96775.72;;;26.38
48003;BMP280;33768;48.578;11.574;2022-10-16T13:32:38;96769.50;;;26.26
48003;BMP280;33768;48.578;11.574;2022-10-16T13:35:51;96768.97;;;26.03
48003;BMP280;33768;48.578;11.574;2022-10-16T13:39:24;96771.72;;;25.77
48003;BMP280;33768;48.578;11.574;2022-10-16T13:42:29;96778.59;;;25.62
48003;BMP280;33768;48.578;11.574;2022-10-16T13:45:34;96779.84;;;25.35
48003;BMP280;33768;48.578;11.574;2022-10-16T13:48:39;96775.84;;;25.13
48003;BMP280;33768;48.578;11.574;2022-10-16T13:51:59;96769.06;;;25.05
48003;BMP280;33768;48.578;11.574;2022-10-16T13:55:10;96777.81;;;24.99
48003;BMP280;33768;48.578;11.574;2022-10-16T13:58:14;96778.84;;;24.92
48003;BMP280;33768;48.578;11.574;2022-10-16T14:01:28;96775.69;;;24.86
48003;BMP280;33768;48.578;11.574;2022-10-16T14:04:33;96780.78;;;24.79
48003;BMP280;33768;48.578;11.574;2022-10-16T14:07:37;96776.44;;;24.64
48003;BMP280;33768;48.578;11.574;2022-10-16T14:10:42;96776.88;;;24.48
48003;BMP280;33768;48.578;11.574;2022-10-16T14:13:46;96777.88;;;24.29
48003;BMP280;33768;48.578;11.574;2022-10-16T14:16:51;96789.50;;;24.15
48003;BMP280;33768;48.578;11.574;2022-10-16T14:19:58;96783.56;;;23.97
48003;BMP280;33768;48.578;11.574;2022-10-16T14:23:18;96788.28;;;23.84
48003;BMP280;33768;48.578;11.574;2022-10-16T14:26:26;96783.28;;;23.71
48003;BMP280;33768;48.578;11.574;2022-10-16T14:29:30;96780.88;;;23.54
48003;BMP280;33768;48.578;11.574;2022-10-16T14:32:35;96779.84;;;23.50
48003;BMP280;33768;48.578;11.574;2022-10-16T14:35:39;96777.50;;;23.35
48003;BMP280;33768;48.578;11.574;2022-10-16T14:42:04;96778.50;;;23.07
48003;BMP280;33768;48.578;11.574;2022-10-16T14:45:09;96790.59;;;23.00
48003;BMP280;33768;48.578;11.574;2022-10-16T14:48:17;96789.28;;;22.81
48003;BMP280;33768;48.578;11.574;2022-10-16T14:51:21;96795.78;;;22.74
48003;BMP280;33768;48.578;11.574;2022-10-16T14:54:26;96793.66;;;22.63
48003;BMP280;33768;48.578;11.574;2022-10-16T14:57:32;96790.94;;;22.54
48003;BMP280;33768;48.578;11.574;2022-10-16T15:00:38;96796.03;;;22.36
48003;BMP280;33768;48.578;11.574;2022-10-16T15:03:42;96802.13;;;22.24
48003;BMP280;33768;48.578;11.574;2022-10-16T15:06:47;96798.06;;;22.15
48003;BMP280;33768;48.578;11.574;2022-10-16T15:09:51;96799.53;;;22.07
48003;BMP280;33768;48.578;11.574;2022-10-16T15:12:55;96810.25;;;22.01
48003;BMP280;33768;48.578;11.574;2022-10-16T15:15:59;96808.22;;;21.92
48003;BMP280;33768;48.578;11.574;2022-10-16T15:19:03;96811.50;;;21.79
48003;BMP280;33768;48.578;11.574;2022-10-16T15:22:10;96808.47;;;21.66
48003;BMP280;33768;48.578;11.574;2022-10-16T15:25:29;96809.53;;;21.52
48003;BMP280;33768;48.578;11.574;2022-10-16T15:28:34;96807.50;;;21.33
48003;BMP280;33768;48.578;11.574;2022-10-16T15:31:39;96820.41;;;21.10
48003;BMP280;33768;48.578;11.574;2022-10-16T15:34:46;96814.88;;;20.92
48003;BMP280;33768;48.578;11.574;2022-10-16T15:37:50;96825.25;;;20.82
48003;BMP280;33768;48.578;11.574;2022-10-16T15:40:54;96819.69;;;20.72
48003;BMP280;33768;48.578;11.574;2022-10-16T15:43:58;96824.63;;;20.65
48003;BMP280;33768;48.578;11.574;2022-10-16T15:47:03;96825.75;;;20.52
48003;BMP280;33768;48.578;11.574;2022-10-16T15:50:09;96823.53;;;20.32
48003;BMP280;33768;48.578;11.574;2022-10-16T15:53:15;96823.34;;;20.11
48003;BMP280;33768;48.578;11.574;2022-10-16T15:56:19;96825.75;;;19.89
48003;BMP280;33768;48.578;11.574;2022-10-16T15:59:23;96824.16;;;19.69
48003;BMP280;33768;48.578;11.574;2022-10-16T16:02:27;96817.78;;;19.50
48003;BMP280;33768;48.578;11.574;2022-10-16T16:05:32;96827.31;;;19.30
48003;BMP280;33768;48.578;11.574;2022-10-16T16:08:37;96822.22;;;19.10
48003;BMP280;33768;48.578;11.574;2022-10-16T16:11:42;96832.47;;;19.00
48003;BMP280;33768;48.578;11.574;2022-10-16T16:14:47;96827.91;;;18.79
48003;BMP280;33768;48.578;11.574;2022-10-16T16:17:52;96826.09;;;18.57
48003;BMP280;33768;48.578;11.574;2022-10-16T16:20:57;96843.59;;;18.43
48003;BMP280;33768;48.578;11.574;2022-10-16T16:24:01;96847.38;;;18.30
48003;BMP280;33768;48.578;11.574;2022-10-16T16:27:11;96841.56;;;18.19
48003;BMP280;33768;48.578;11.574;2022-10-16T16:30:16;96841.88;;;18.06
48003;BMP280;33768;48.578;11.574;2022-10-16T16:33:23;96848.22;;;17.92
48003;BMP280;33768;48.578;11.574;2022-10-16T16:36:28;96834.13;;;17.81
48003;BMP280;33768;48.578;11.574;2022-10-16T16:39:33;96855.19;;;17.69
48003;BMP280;33768;48.578;11.574;2022-10-16T16:42:37;96855.97;;;17.62
48003;BMP280;33768;48.578;11.574;2022-10-16T16:45:41;96852.53;;;17.54
48003;BMP280;33768;48.578;11.574;2022-10-16T16:48:45;96853.31;;;17.47
48003;BMP280;33768;48.578;11.574;2022-10-16T16:51:50;96865.28;;;17.42
48003;BMP280;33768;48.578;11.574;2022-10-16T16:54:54;96871.94;;;17.39
48003;BMP280;33768;48.578;11.574;2022-10-16T16:57:59;96868.25;;;17.37
48003;BMP280;33768;48.578;11.574;2022-10-16T17:01:03;96874.31;;;17.35
48003;BMP280;33768;48.578;11.574;2022-10-16T17:04:07;96882.41;;;17.33
48003;BMP280;33768;48.578;11.574;2022-10-16T17:07:11;96880.78;;;17.30
48003;BMP280;33768;48.578;11.574;2022-10-16T17:10:16;96883.75;;;17.25
48003;BMP280;33768;48.578;11.574;2022-10-16T17:13:21;96897.22;;;17.21
48003;BMP280;33768;48.578;11.574;2022-10-16T17:16:32;96897.41;;;17.16
48003;BMP280;33768;48.578;11.574;2022-10-16T17:19:37;96900.72;;;17.14
48003;BMP280;33768;48.578;11.574;2022-10-16T17:22:41;96905.84;;;17.10
48003;BMP280;33768;48.578;11.574;2022-10-16T17:25:46;96906.25;;;17.07
48003;BMP280;33768;48.578;11.574;2022-10-16T17:28:51;96909.94;;;17.02
48003;BMP280;33768;48.578;11.574;2022-10-16T17:32:00;96914.00;;;17.01
48003;BMP280;33768;48.578;11.574;2022-10-16T17:35:05;96914.34;;;16.97
48003;BMP280;33768;48.578;11.574;2022-10-16T17:38:11;96920.97;;;16.94
48003;BMP280;33768;48.578;11.574;2022-10-16T17:41:22;96927.03;;;16.93
48003;BMP280;33768;48.578;11.574;2022-10-16T17:44:26;96930.91;;;16.90
48003;BMP280;33768;48.578;11.574;2022-10-16T17:47:30;96931.47;;;16.89
48003;BMP280;33768;48.578;11.574;2022-10-16T17:50:39;96947.84;;;16.87
48003;BMP280;33768;48.578;11.574;2022-10-16T17:53:47;96943.97;;;16.82
48003;BMP280;33768;48.578;11.574;2022-10-16T17:56:51;96956.31;;;16.81
48003;BMP280;33768;48.578;11.574;2022-10-16T17:59:56;96955.38;;;16.79
48003;BMP280;33768;48.578;11.574;2022-10-16T18:03:00;96957.03;;;16.74
48003;BMP280;33768;48.578;11.574;2022-10-16T18:06:04;96963.66;;;16.71
48003;BMP280;33768;48.578;11.574;2022-10-16T18:09:09;96962.56;;;16.67
48003;BMP280;33768;48.578;11.574;2022-10-16T18:12:14;96971.75;;;16.69
48003;BMP280;33768;48.578;11.574;2022-10-16T18:15:19;96963.84;;;16.73
48003;BMP280;33768;48.578;11.574;2022-10-16T18:18:23;96973.75;;;16.76
48003;BMP280;33768;48.578;11.574;2022-10-16T18:21:27;96969.53;;;16.75
48003;BMP280;33768;48.578;11.574;2022-10-16T18:24:31;96975.94;;;16.70
48003;BMP280;33768;48.578;11.574;2022-10-16T18:27:35;96982.97;;;16.64
48003;BMP280;33768;48.578;11.574;2022-10-16T18:30:40;96984.59;;;16.59
48003;BMP280;33768;48.578;11.574;2022-10-16T18:33:45;96975.22;;;16.55
48003;BMP280;33768;48.578;11.574;2022-10-16T18:36:53;96976.16;;;16.58
48003;BMP280;33768;48.578;11.574;2022-10-16T18:39:57;96975.41;;;16.64
48003;BMP280;33768;48.578;11.574;2022-10-16T18:43:01;96982.22;;;16.71
48003;BMP280;33768;48.578;11.574;2022-10-16T18:46:11;96973.94;;;16.78
48003;BMP280;33768;48.578;11.574;2022-10-16T18:49:16;96979.81;;;16.82
48003;BMP280;33768;48.578;11.574;2022-10-16T18:52:20;96984.59;;;16.89
48003;BMP280;33768;48.578;11.574;2022-10-16T18:55:26;96991.75;;;16.92
48003;BMP280;33768;48.578;11.574;2022-10-16T18:58:36;96979.41;;;16.93
48003;BMP280;33768;48.578;11.574;2022-10-16T19:01:41;96987.88;;;16.95
48003;BMP280;33768;48.578;11.574;2022-10-16T19:04:46;96990.81;;;16.97
48003;BMP280;33768;48.578;11.574;2022-10-16T19:07:51;96989.38;;;16.96
48003;BMP280;33768;48.578;11.574;2022-10-16T19:10:55;96995.25;;;16.92
48003;BMP280;33768;48.578;11.574;2022-10-16T19:13:59;96993.22;;;16.86
48003;BMP280;33768;48.578;11.574;2022-10-16T19:17:03;96987.16;;;16.80